Wetterdaten vom Mittwoch, 16. Januar 2019

Temperatur Taupunkt Windchill Luftfeuchte Luftdruck Solarstrahlung Regen ET
(Verdunstung von Wasser)
Wind
Max 5.2 °C
14:35
2.1 °C
00:10
5.2 °C
14:40
90%
00:00
1013.7 hPa
00:05
297 W/m²
12:50
10.8 km/h
01:05 km/h
Durchschnitt 3.7 °C 1.1 °C 3.2 °C 83% 1009.5 hPa 103 W/m² 0 mm 0.381 mm 4.9 km/h
Min 2.8 °C
08:20
0.3 °C
10:20
-0.2 °C
01:05
76%
14:45
1004.1 hPa
16:45
0 km/h (Böe)
07:50 km/h
Zeit
00:00 3.5 °C 2.0 °C 3.4 °C 90% 1013.5 hPa 0 W/m² 0.0 mm 0.000 mm 6.5 km/h
00:05 3.5 °C 2.0 °C 1.9 °C 90% 1013.7 hPa 0 W/m² 0.0 mm 0.000 mm 8.1 km/h
00:10 3.6 °C 2.1 °C 0.4 °C 90% 1013.3 hPa 0 W/m² 0.0 mm 0.000 mm 10.2 km/h
00:15 3.6 °C 2.1 °C 1.6 °C 90% 1013.7 hPa 0 W/m² 0.0 mm 0.000 mm 8.6 km/h
00:20 3.6 °C 2.0 °C 0.3 °C 89% 1013.1 hPa 0 W/m² 0.0 mm 0.000 mm 10.3 km/h
00:25 3.6 °C 2.0 °C 1.5 °C 89% 1013.0 hPa 0 W/m² 0.0 mm 0.000 mm 8.8 km/h
00:30 3.6 °C 2.0 °C 2.5 °C 89% 1013.2 hPa 0 W/m² 0.0 mm 0.000 mm 7.6 km/h
00:35 3.6 °C 2.0 °C 3.6 °C 89% 1013.2 hPa 0 W/m² 0.0 mm 0.000 mm 6.4 km/h
00:40 3.6 °C 2.0 °C 1.0 °C 89% 1013.2 hPa 0 W/m² 0.0 mm 0.000 mm 9.4 km/h
00:45 3.6 °C 2.1 °C 3.2 °C 90% 1013.2 hPa 0 W/m² 0.0 mm 0.000 mm 6.8 km/h
00:50 3.6 °C 2.1 °C 2.5 °C 90% 1013.2 hPa 0 W/m² 0.0 mm 0.000 mm 7.6 km/h
00:55 3.6 °C 2.1 °C 0.8 °C 90% 1013.0 hPa 0 W/m² 0.0 mm 0.000 mm 9.6 km/h
01:00 3.6 °C 2.1 °C 1.4 °C 90% 1013.2 hPa 0 W/m² 0.0 mm 0.000 mm 8.9 km/h
01:05 3.5 °C 2.0 °C -0.2 °C 90% 1012.6 hPa 0 W/m² 0.0 mm 0.000 mm 10.8 km/h
01:10 3.5 °C 2.0 °C -0.2 °C 90% 1012.9 hPa 0 W/m² 0.0 mm 0.000 mm 10.8 km/h
01:15 3.5 °C 2.0 °C 2.0 °C 90% 1013.0 hPa 0 W/m² 0.0 mm 0.000 mm 8.0 km/h
01:20 3.4 °C 1.8 °C 1.7 °C 89% 1012.9 hPa 0 W/m² 0.0 mm 0.000 mm 8.2 km/h
01:25 3.4 °C 1.8 °C 1.6 °C 89% 1013.0 hPa 0 W/m² 0.0 mm 0.000 mm 8.4 km/h
01:30 3.4 °C 1.9 °C 0.8 °C 90% 1012.8 hPa 0 W/m² 0.0 mm 0.000 mm 9.3 km/h
01:35 3.4 °C 1.9 °C 3.4 °C 90% 1012.9 hPa 0 W/m² 0.0 mm 0.000 mm 4.7 km/h
01:40 3.3 °C 1.8 °C 1.5 °C 90% 1013.0 hPa 0 W/m² 0.0 mm 0.000 mm 8.4 km/h
01:45 3.3 °C 1.8 °C 0.7 °C 90% 1012.9 hPa 0 W/m² 0.0 mm 0.000 mm 9.4 km/h
01:50 3.4 °C 1.9 °C 3.4 °C 90% 1012.4 hPa 0 W/m² 0.0 mm 0.000 mm 4.9 km/h
01:55 3.4 °C 1.9 °C 2.3 °C 90% 1012.7 hPa 0 W/m² 0.0 mm 0.000 mm 7.6 km/h
02:00 3.3 °C 1.8 °C 2.7 °C 90% 1012.4 hPa 0 W/m² 0.0 mm 0.000 mm 7.0 km/h
02:05 3.4 °C 1.9 °C 2.0 °C 90% 1012.3 hPa 0 W/m² 0.0 mm 0.000 mm 7.9 km/h
02:10 3.4 °C 1.9 °C 3.4 °C 90% 1012.5 hPa 0 W/m² 0.0 mm 0.000 mm 5.2 km/h
02:15 3.4 °C 1.8 °C 1.9 °C 89% 1012.3 hPa 0 W/m² 0.0 mm 0.000 mm 8.0 km/h
02:20 3.4 °C 1.9 °C 3.1 °C 90% 1012.0 hPa 0 W/m² 0.0 mm 0.000 mm 6.7 km/h
02:25 3.4 °C 1.8 °C 3.4 °C 89% 1012.4 hPa 0 W/m² 0.0 mm 0.000 mm 5.5 km/h
02:30 3.4 °C 1.8 °C 2.5 °C 89% 1012.8 hPa 0 W/m² 0.0 mm 0.000 mm 7.4 km/h
02:35 3.4 °C 1.8 °C 0.1 °C 89% 1012.8 hPa 0 W/m² 0.0 mm 0.000 mm 10.3 km/h
02:40 3.4 °C 1.8 °C 0.8 °C 89% 1012.8 hPa 0 W/m² 0.0 mm 0.000 mm 9.4 km/h
02:45 3.4 °C 1.8 °C 2.1 °C 89% 1012.7 hPa 0 W/m² 0.0 mm 0.000 mm 7.8 km/h
02:50 3.4 °C 1.8 °C 1.5 °C 89% 1012.8 hPa 0 W/m² 0.0 mm 0.000 mm 8.5 km/h
02:55 3.4 °C 1.8 °C 1.6 °C 89% 1012.7 hPa 0 W/m² 0.0 mm 0.000 mm 8.4 km/h
03:00 3.4 °C 1.6 °C 0.9 °C 88% 1012.7 hPa 0 W/m² 0.0 mm 0.000 mm 9.2 km/h
03:05 3.4 °C 1.6 °C 1.0 °C 88% 1012.4 hPa 0 W/m² 0.0 mm 0.000 mm 9.1 km/h
03:10 3.4 °C 1.6 °C 3.4 °C 88% 1012.1 hPa 0 W/m² 0.0 mm 0.000 mm 5.8 km/h
03:15 3.4 °C 1.6 °C 3.4 °C 88% 1012.3 hPa 0 W/m² 0.0 mm 0.000 mm 6.0 km/h
03:20 3.3 °C 1.5 °C 3.3 °C 88% 1012.3 hPa 0 W/m² 0.0 mm 0.000 mm 2.8 km/h
03:25 3.3 °C 1.5 °C 3.3 °C 88% 1012.3 hPa 0 W/m² 0.0 mm 0.000 mm 3.4 km/h
03:30 3.2 °C 1.4 °C 3.2 °C 88% 1012.4 hPa 0 W/m² 0.0 mm 0.000 mm 2.0 km/h
03:35 3.2 °C 1.4 °C 3.2 °C 88% 1012.3 hPa 0 W/m² 0.0 mm 0.000 mm 2.7 km/h
03:40 3.1 °C 1.3 °C 3.1 °C 88% 1012.3 hPa 0 W/m² 0.0 mm 0.000 mm 2.4 km/h
03:45 3.1 °C 1.3 °C 3.1 °C 88% 1012.3 hPa 0 W/m² 0.0 mm 0.000 mm 5.5 km/h
03:50 3.2 °C 1.6 °C 3.2 °C 89% 1012.0 hPa 0 W/m² 0.0 mm 0.000 mm 4.5 km/h
03:55 3.2 °C 1.4 °C 3.2 °C 88% 1011.9 hPa 0 W/m² 0.0 mm 0.000 mm 4.6 km/h
04:00 3.2 °C 1.4 °C 2.0 °C 88% 1012.4 hPa 0 W/m² 0.0 mm 0.000 mm 7.7 km/h
04:05 3.2 °C 1.4 °C 2.9 °C 88% 1012.1 hPa 0 W/m² 0.0 mm 0.000 mm 6.7 km/h
04:10 3.2 °C 1.4 °C 2.6 °C 88% 1012.0 hPa 0 W/m² 0.0 mm 0.000 mm 7.0 km/h
04:15 3.2 °C 1.4 °C 3.2 °C 88% 1012.1 hPa 0 W/m² 0.0 mm 0.000 mm 4.7 km/h
04:20 3.2 °C 1.4 °C 0.7 °C 88% 1011.9 hPa 0 W/m² 0.0 mm 0.000 mm 9.2 km/h
04:25 3.2 °C 1.4 °C 3.2 °C 88% 1011.6 hPa 0 W/m² 0.0 mm 0.000 mm 5.5 km/h
04:30 3.2 °C 1.4 °C 1.1 °C 88% 1011.7 hPa 0 W/m² 0.0 mm 0.000 mm 8.7 km/h
04:35 3.2 °C 1.4 °C 3.2 °C 88% 1011.8 hPa 0 W/m² 0.0 mm 0.000 mm 3.8 km/h
04:40 3.1 °C 1.2 °C 3.1 °C 87% 1011.8 hPa 0 W/m² 0.0 mm 0.000 mm 4.0 km/h
04:45 3.1 °C 1.3 °C 3.1 °C 88% 1011.4 hPa 0 W/m² 0.0 mm 0.000 mm 4.2 km/h
04:50 3.1 °C 1.3 °C 3.1 °C 88% 1011.5 hPa 0 W/m² 0.0 mm 0.000 mm 2.0 km/h
04:55 3.1 °C 1.3 °C 3.1 °C 88% 1011.4 hPa 0 W/m² 0.0 mm 0.000 mm 3.7 km/h
05:00 3.1 °C 1.2 °C 3.1 °C 87% 1011.4 hPa 0 W/m² 0.0 mm 0.000 mm 3.0 km/h
05:05 3.1 °C 1.2 °C 3.1 °C 87% 1011.4 hPa 0 W/m² 0.0 mm 0.000 mm 2.9 km/h
05:10 3.1 °C 1.2 °C 3.1 °C 87% 1011.2 hPa 0 W/m² 0.0 mm 0.000 mm 3.7 km/h
05:15 3.1 °C 1.2 °C 3.1 °C 87% 1010.7 hPa 0 W/m² 0.0 mm 0.000 mm 1.6 km/h
05:20 3.1 °C 1.2 °C 3.1 °C 87% 1010.9 hPa 0 W/m² 0.0 mm 0.000 mm 2.7 km/h
05:25 3.1 °C 1.2 °C 3.1 °C 87% 1011.0 hPa 0 W/m² 0.0 mm 0.000 mm 4.5 km/h
05:30 3.1 °C 1.2 °C 3.1 °C 87% 1011.0 hPa 0 W/m² 0.0 mm 0.000 mm 2.4 km/h
05:35 3.1 °C 1.2 °C 3.1 °C 87% 1011.1 hPa 0 W/m² 0.0 mm 0.000 mm 5.6 km/h
05:40 3.1 °C 1.0 °C 3.1 °C 86% 1010.7 hPa 0 W/m² 0.0 mm 0.000 mm 3.1 km/h
05:45 3.1 °C 1.0 °C 3.1 °C 86% 1010.9 hPa 0 W/m² 0.0 mm 0.000 mm 0.9 km/h
05:50 3.1 °C 1.0 °C 3.1 °C 86% 1011.1 hPa 0 W/m² 0.0 mm 0.000 mm 3.5 km/h
05:55 3.1 °C 1.0 °C 3.1 °C 86% 1010.6 hPa 0 W/m² 0.0 mm 0.000 mm 2.8 km/h
06:00 3.2 °C 1.1 °C 2.9 °C 86% 1010.8 hPa 0 W/m² 0.0 mm 0.000 mm 6.7 km/h
06:05 3.2 °C 1.1 °C 3.2 °C 86% 1010.5 hPa 0 W/m² 0.0 mm 0.000 mm 5.5 km/h
06:10 3.2 °C 0.9 °C 3.2 °C 85% 1010.5 hPa 0 W/m² 0.0 mm 0.000 mm 5.8 km/h
06:15 3.2 °C 0.9 °C 3.2 °C 85% 1010.2 hPa 0 W/m² 0.0 mm 0.000 mm 5.2 km/h
06:20 3.2 °C 0.9 °C 3.2 °C 85% 1011.0 hPa 0 W/m² 0.0 mm 0.000 mm 6.4 km/h
06:25 3.2 °C 0.9 °C 3.2 °C 85% 1010.4 hPa 0 W/m² 0.0 mm 0.000 mm 5.9 km/h
06:30 3.2 °C 0.9 °C 3.2 °C 85% 1010.5 hPa 0 W/m² 0.0 mm 0.000 mm 6.2 km/h
06:35 3.2 °C 0.9 °C 3.2 °C 85% 1010.3 hPa 0 W/m² 0.0 mm 0.000 mm 6.3 km/h
06:40 3.2 °C 0.9 °C 3.2 °C 85% 1010.4 hPa 0 W/m² 0.0 mm 0.000 mm 4.5 km/h
06:45 3.2 °C 0.8 °C 3.2 °C 84% 1010.4 hPa 0 W/m² 0.0 mm 0.000 mm 4.5 km/h
06:50 3.2 °C 0.8 °C 3.2 °C 84% 1010.1 hPa 0 W/m² 0.0 mm 0.000 mm 4.9 km/h
06:55 3.2 °C 0.8 °C 3.2 °C 84% 1010.3 hPa 0 W/m² 0.0 mm 0.000 mm 3.7 km/h
07:00 3.2 °C 0.8 °C 3.2 °C 84% 1010.5 hPa 0 W/m² 0.0 mm 0.000 mm 5.0 km/h
07:05 3.2 °C 0.8 °C 3.2 °C 84% 1009.7 hPa 0 W/m² 0.0 mm 0.000 mm 6.3 km/h
07:10 3.2 °C 0.6 °C 3.2 °C 83% 1010.0 hPa 0 W/m² 0.0 mm 0.000 mm 3.4 km/h
07:15 3.2 °C 0.6 °C 3.2 °C 83% 1010.1 hPa 0 W/m² 0.0 mm 0.000 mm 3.6 km/h
07:20 3.2 °C 0.6 °C 3.2 °C 83% 1010.0 hPa 0 W/m² 0.0 mm 0.000 mm 1.5 km/h
07:25 3.2 °C 0.6 °C 3.2 °C 83% 1010.1 hPa 0 W/m² 0.0 mm 0.000 mm 2.4 km/h
07:30 3.1 °C 0.7 °C 3.1 °C 84% 1009.9 hPa 0 W/m² 0.0 mm 0.000 mm 3.6 km/h
07:35 3.1 °C 0.7 °C 3.1 °C 84% 1009.7 hPa 0 W/m² 0.0 mm 0.000 mm 2.9 km/h
07:40 3.1 °C 0.7 °C 3.1 °C 84% 1010.6 hPa 0 W/m² 0.0 mm 0.000 mm 1.7 km/h
07:45 3.0 °C 0.6 °C 3.0 °C 84% 1010.2 hPa 0 W/m² 0.0 mm 0.000 mm 0.1 km/h
07:50 3.0 °C 0.6 °C 3.0 °C 84% 1010.0 hPa 0 W/m² 0.0 mm 0.000 mm 0.0 km/h
07:55 3.0 °C 0.6 °C 3.0 °C 84% 1009.9 hPa 0 W/m² 0.0 mm 0.000 mm 1.7 km/h
08:00 2.9 °C 0.5 °C 2.9 °C 84% 1009.8 hPa 0 W/m² 0.0 mm 0.000 mm 0.2 km/h
08:05 2.9 °C 0.5 °C 2.9 °C 84% 1010.1 hPa 0 W/m² 0.0 mm 0.000 mm 2.1 km/h
08:10 2.9 °C 0.5 °C 2.9 °C 84% 1009.8 hPa 0 W/m² 0.0 mm 0.000 mm 2.5 km/h
08:15 2.9 °C 0.5 °C 2.9 °C 84% 1009.9 hPa 0 W/m² 0.0 mm 0.000 mm 1.9 km/h
08:20 2.8 °C 0.4 °C 2.8 °C 84% 1010.0 hPa 0 W/m² 0.0 mm 0.000 mm 1.0 km/h
08:25 2.8 °C 0.4 °C 2.8 °C 84% 1010.1 hPa 5 W/m² 0.0 mm 0.000 mm 3.1 km/h
08:30 2.8 °C 0.4 °C 2.8 °C 84% 1010.5 hPa 8 W/m² 0.0 mm 0.000 mm 1.1 km/h
08:35 2.8 °C 0.4 °C 2.8 °C 84% 1009.9 hPa 10 W/m² 0.0 mm 0.000 mm 0.3 km/h
08:40 2.8 °C 0.4 °C 2.8 °C 84% 1010.4 hPa 12 W/m² 0.0 mm 0.000 mm 0.2 km/h
08:45 2.8 °C 0.4 °C 2.8 °C 84% 1010.1 hPa 12 W/m² 0.0 mm 0.000 mm 1.6 km/h
08:50 2.8 °C 0.4 °C 2.8 °C 84% 1010.2 hPa 12 W/m² 0.0 mm 0.000 mm 0.2 km/h
08:55 2.8 °C 0.4 °C 2.8 °C 84% 1010.0 hPa 15 W/m² 0.0 mm 0.000 mm 0.0 km/h
09:00 2.8 °C 0.4 °C 2.8 °C 84% 1010.1 hPa 18 W/m² 0.0 mm 0.000 mm 0.0 km/h
09:05 2.8 °C 0.4 °C 2.8 °C 84% 1010.2 hPa 21 W/m² 0.0 mm 0.000 mm 0.4 km/h
09:10 2.8 °C 0.4 °C 2.8 °C 84% 1010.4 hPa 23 W/m² 0.0 mm 0.000 mm 0.1 km/h
09:15 2.9 °C 0.5 °C 2.9 °C 84% 1009.8 hPa 23 W/m² 0.0 mm 0.000 mm 0.2 km/h
09:20 2.9 °C 0.5 °C 2.9 °C 84% 1010.2 hPa 27 W/m² 0.0 mm 0.000 mm 0.0 km/h
09:25 2.9 °C 0.5 °C 2.9 °C 84% 1010.2 hPa 33 W/m² 0.0 mm 0.000 mm 0.0 km/h
09:30 2.9 °C 0.5 °C 2.9 °C 84% 1010.0 hPa 38 W/m² 0.0 mm 0.000 mm 0.7 km/h
09:35 2.9 °C 0.5 °C 2.9 °C 84% 1010.1 hPa 38 W/m² 0.0 mm 0.000 mm 3.2 km/h
09:40 3.0 °C 0.6 °C 3.0 °C 84% 1010.3 hPa 39 W/m² 0.0 mm 0.000 mm 0.1 km/h
09:45 3.0 °C 0.6 °C 3.0 °C 84% 1009.7 hPa 43 W/m² 0.0 mm 0.000 mm 2.2 km/h
09:50 3.0 °C 0.6 °C 3.0 °C 84% 1009.6 hPa 41 W/m² 0.0 mm 0.000 mm 2.0 km/h
09:55 3.1 °C 0.5 °C 3.1 °C 83% 1009.9 hPa 43 W/m² 0.0 mm 0.000 mm 1.4 km/h
10:00 3.1 °C 0.5 °C 3.1 °C 83% 1009.5 hPa 41 W/m² 0.0 mm 0.025 mm 2.4 km/h
10:05 3.1 °C 0.5 °C 3.1 °C 83% 1009.6 hPa 47 W/m² 0.0 mm 0.000 mm 3.2 km/h
10:10 3.1 °C 0.5 °C 3.1 °C 83% 1009.0 hPa 50 W/m² 0.0 mm 0.000 mm 4.8 km/h
10:15 3.1 °C 0.5 °C 3.1 °C 83% 1009.5 hPa 54 W/m² 0.0 mm 0.000 mm 6.1 km/h
10:20 3.1 °C 0.3 °C 2.4 °C 82% 1009.6 hPa 64 W/m² 0.0 mm 0.000 mm 7.1 km/h
10:25 3.2 °C 0.4 °C 2.4 °C 82% 1009.9 hPa 74 W/m² 0.0 mm 0.000 mm 7.3 km/h
10:30 3.2 °C 0.4 °C 3.2 °C 82% 1009.1 hPa 76 W/m² 0.0 mm 0.000 mm 6.0 km/h
10:35 3.2 °C 0.4 °C 3.2 °C 82% 1009.2 hPa 78 W/m² 0.0 mm 0.000 mm 2.9 km/h
10:40 3.3 °C 0.4 °C 3.3 °C 81% 1009.7 hPa 73 W/m² 0.0 mm 0.000 mm 5.2 km/h
10:45 3.3 °C 0.4 °C 2.7 °C 81% 1009.6 hPa 85 W/m² 0.0 mm 0.000 mm 7.0 km/h
10:50 3.4 °C 0.5 °C 3.4 °C 81% 1009.3 hPa 90 W/m² 0.0 mm 0.000 mm 3.8 km/h
10:55 3.4 °C 0.5 °C 3.4 °C 81% 1009.4 hPa 94 W/m² 0.0 mm 0.000 mm 2.9 km/h
11:00 3.4 °C 0.5 °C 3.4 °C 81% 1009.3 hPa 108 W/m² 0.0 mm 0.026 mm 2.8 km/h
11:05 3.5 °C 0.6 °C 3.5 °C 81% 1009.3 hPa 106 W/m² 0.0 mm 0.000 mm 3.7 km/h
11:10 3.6 °C 0.7 °C 3.6 °C 81% 1009.3 hPa 103 W/m² 0.0 mm 0.000 mm 3.0 km/h
11:15 3.6 °C 0.7 °C 3.6 °C 81% 1009.1 hPa 98 W/m² 0.0 mm 0.000 mm 3.3 km/h
11:20 3.7 °C 0.7 °C 3.7 °C 81% 1009.2 hPa 99 W/m² 0.0 mm 0.000 mm 2.8 km/h
11:25 3.7 °C 0.6 °C 3.7 °C 80% 1008.9 hPa 109 W/m² 0.0 mm 0.000 mm 4.0 km/h
11:30 3.7 °C 0.6 °C 3.7 °C 80% 1008.6 hPa 141 W/m² 0.0 mm 0.000 mm 4.6 km/h
11:35 3.8 °C 0.7 °C 3.8 °C 80% 1008.4 hPa 149 W/m² 0.0 mm 0.000 mm 4.5 km/h
11:40 3.9 °C 0.8 °C 3.9 °C 80% 1008.4 hPa 157 W/m² 0.0 mm 0.000 mm 6.2 km/h
11:45 3.9 °C 0.8 °C 3.9 °C 80% 1008.6 hPa 161 W/m² 0.0 mm 0.000 mm 2.2 km/h
11:50 4.0 °C 0.7 °C 4.0 °C 79% 1008.8 hPa 167 W/m² 0.0 mm 0.000 mm 3.4 km/h
11:55 4.1 °C 1.0 °C 4.1 °C 80% 1008.4 hPa 187 W/m² 0.0 mm 0.000 mm 6.2 km/h
12:00 4.1 °C 0.8 °C 4.1 °C 79% 1008.6 hPa 157 W/m² 0.0 mm 0.051 mm 5.8 km/h
12:05 4.1 °C 0.8 °C 2.2 °C 79% 1008.6 hPa 176 W/m² 0.0 mm 0.000 mm 8.6 km/h
12:10 4.2 °C 0.9 °C 4.2 °C 79% 1008.4 hPa 181 W/m² 0.0 mm 0.000 mm 5.3 km/h
12:15 4.2 °C 0.9 °C 4.2 °C 79% 1008.5 hPa 149 W/m² 0.0 mm 0.000 mm 5.1 km/h
12:20 4.2 °C 0.7 °C 2.0 °C 78% 1008.1 hPa 121 W/m² 0.0 mm 0.000 mm 8.9 km/h
12:25 4.2 °C 0.7 °C 1.7 °C 78% 1008.2 hPa 119 W/m² 0.0 mm 0.000 mm 9.3 km/h
12:30 4.2 °C 0.7 °C 4.2 °C 78% 1008.0 hPa 119 W/m² 0.0 mm 0.000 mm 4.7 km/h
12:35 4.2 °C 0.9 °C 4.1 °C 79% 1007.7 hPa 147 W/m² 0.0 mm 0.000 mm 6.5 km/h
12:40 4.3 °C 1.0 °C 3.7 °C 79% 1007.7 hPa 200 W/m² 0.0 mm 0.000 mm 7.1 km/h
12:45 4.4 °C 1.1 °C 4.4 °C 79% 1007.3 hPa 246 W/m² 0.0 mm 0.000 mm 5.8 km/h
12:50 4.6 °C 1.3 °C 2.8 °C 79% 1007.3 hPa 297 W/m² 0.0 mm 0.000 mm 8.5 km/h
12:55 4.8 °C 1.5 °C 4.5 °C 79% 1007.2 hPa 258 W/m² 0.0 mm 0.000 mm 6.8 km/h
13:00 4.9 °C 1.4 °C 3.3 °C 78% 1007.1 hPa 257 W/m² 0.0 mm 0.076 mm 8.3 km/h
13:05 4.9 °C 1.4 °C 4.9 °C 78% 1007.4 hPa 234 W/m² 0.0 mm 0.000 mm 6.1 km/h
13:10 5.0 °C 1.5 °C 3.6 °C 78% 1007.2 hPa 216 W/m² 0.0 mm 0.000 mm 8.0 km/h
13:15 4.9 °C 1.2 °C 2.3 °C 77% 1007.1 hPa 194 W/m² 0.0 mm 0.000 mm 9.5 km/h
13:20 4.9 °C 1.2 °C 4.9 °C 77% 1007.0 hPa 213 W/m² 0.0 mm 0.000 mm 4.9 km/h
13:25 5.1 °C 1.6 °C 5.1 °C 78% 1007.0 hPa 272 W/m² 0.0 mm 0.000 mm 5.3 km/h
13:30 5.1 °C 1.4 °C 2.0 °C 77% 1007.1 hPa 207 W/m² 0.0 mm 0.000 mm 10.2 km/h
13:35 5.1 °C 1.4 °C 3.1 °C 77% 1006.9 hPa 152 W/m² 0.0 mm 0.000 mm 8.8 km/h
13:40 4.9 °C 1.2 °C 3.7 °C 77% 1006.4 hPa 133 W/m² 0.0 mm 0.000 mm 7.8 km/h
13:45 4.9 °C 1.2 °C 4.0 °C 77% 1006.8 hPa 157 W/m² 0.0 mm 0.000 mm 7.4 km/h
13:50 4.9 °C 1.2 °C 4.9 °C 77% 1006.5 hPa 221 W/m² 0.0 mm 0.000 mm 5.9 km/h
13:55 5.0 °C 1.3 °C 3.5 °C 77% 1006.6 hPa 203 W/m² 0.0 mm 0.000 mm 8.1 km/h
14:00 5.1 °C 1.4 °C 4.5 °C 77% 1006.5 hPa 189 W/m² 0.0 mm 0.101 mm 7.1 km/h
14:05 5.1 °C 1.4 °C 5.1 °C 77% 1006.5 hPa 162 W/m² 0.0 mm 0.000 mm 5.3 km/h
14:10 5.1 °C 1.4 °C 3.9 °C 77% 1006.4 hPa 153 W/m² 0.0 mm 0.000 mm 7.8 km/h
14:15 5.1 °C 1.4 °C 5.1 °C 77% 1005.9 hPa 151 W/m² 0.0 mm 0.000 mm 4.0 km/h
14:20 5.1 °C 1.4 °C 4.3 °C 77% 1006.0 hPa 141 W/m² 0.0 mm 0.000 mm 7.3 km/h
14:25 5.1 °C 1.4 °C 5.1 °C 77% 1005.9 hPa 132 W/m² 0.0 mm 0.000 mm 3.7 km/h
14:30 5.1 °C 1.4 °C 5.1 °C 77% 1005.8 hPa 121 W/m² 0.0 mm 0.000 mm 2.6 km/h
14:35 5.1 °C 1.4 °C 5.1 °C 77% 1005.6 hPa 111 W/m² 0.0 mm 0.000 mm 2.0 km/h
14:40 5.2 °C 1.5 °C 5.2 °C 77% 1005.6 hPa 106 W/m² 0.0 mm 0.000 mm 3.9 km/h
14:45 5.1 °C 1.2 °C 4.7 °C 76% 1005.1 hPa 104 W/m² 0.0 mm 0.000 mm 6.9 km/h
14:50 5.1 °C 1.2 °C 4.3 °C 76% 1005.1 hPa 100 W/m² 0.0 mm 0.000 mm 7.3 km/h
14:55 5.1 °C 1.2 °C 5.1 °C 76% 1004.9 hPa 111 W/m² 0.0 mm 0.000 mm 5.6 km/h
15:00 5.1 °C 1.2 °C 5.1 °C 76% 1005.2 hPa 116 W/m² 0.0 mm 0.051 mm 3.5 km/h
15:05 5.1 °C 1.4 °C 5.1 °C 77% 1004.9 hPa 109 W/m² 0.0 mm 0.000 mm 6.1 km/h
15:10 5.1 °C 1.4 °C 5.1 °C 77% 1005.0 hPa 106 W/m² 0.0 mm 0.000 mm 3.8 km/h
15:15 5.1 °C 1.4 °C 3.2 °C 77% 1004.8 hPa 105 W/m² 0.0 mm 0.000 mm 8.6 km/h
15:20 5.1 °C 1.4 °C 5.1 °C 77% 1004.9 hPa 109 W/m² 0.0 mm 0.000 mm 6.0 km/h
15:25 5.0 °C 1.3 °C 5.0 °C 77% 1004.8 hPa 102 W/m² 0.0 mm 0.000 mm 4.8 km/h
15:30 5.0 °C 1.3 °C 2.7 °C 77% 1004.9 hPa 93 W/m² 0.0 mm 0.000 mm 9.1 km/h
15:35 4.9 °C 1.2 °C 3.6 °C 77% 1004.6 hPa 87 W/m² 0.0 mm 0.000 mm 7.9 km/h
15:40 4.8 °C 1.1 °C 4.8 °C 77% 1004.5 hPa 83 W/m² 0.0 mm 0.000 mm 6.1 km/h
15:45 4.8 °C 1.1 °C 4.8 °C 77% 1004.4 hPa 75 W/m² 0.0 mm 0.000 mm 4.4 km/h
15:50 4.7 °C 0.8 °C 4.7 °C 76% 1004.4 hPa 66 W/m² 0.0 mm 0.000 mm 5.8 km/h
15:55 4.7 °C 0.8 °C 4.2 °C 76% 1004.6 hPa 59 W/m² 0.0 mm 0.000 mm 7.0 km/h
16:00 4.6 °C 0.9 °C 4.6 °C 77% 1004.5 hPa 53 W/m² 0.0 mm 0.051 mm 5.6 km/h
16:05 4.6 °C 0.9 °C 4.6 °C 77% 1004.3 hPa 46 W/m² 0.0 mm 0.000 mm 4.9 km/h
16:10 4.5 °C 0.8 °C 4.5 °C 77% 1004.4 hPa 40 W/m² 0.0 mm 0.000 mm 0.8 km/h
16:15 4.4 °C 0.7 °C 4.4 °C 77% 1004.3 hPa 35 W/m² 0.0 mm 0.000 mm 0.0 km/h
16:20 4.3 °C 0.6 °C 4.3 °C 77% 1004.4 hPa 30 W/m² 0.0 mm 0.000 mm 0.3 km/h
16:25 4.3 °C 0.6 °C 4.3 °C 77% 1004.4 hPa 25 W/m² 0.0 mm 0.000 mm 0.8 km/h
16:30 4.2 °C 0.7 °C 4.2 °C 78% 1004.2 hPa 20 W/m² 0.0 mm 0.000 mm 0.0 km/h
16:35 4.1 °C 0.6 °C 4.1 °C 78% 1004.5 hPa 14 W/m² 0.0 mm 0.000 mm 0.1 km/h
16:40 4.1 °C 0.6 °C 4.1 °C 78% 1004.6 hPa 10 W/m² 0.0 mm 0.000 mm 0.1 km/h
16:45 4.1 °C 0.6 °C 4.1 °C 78% 1004.1 hPa 6 W/m² 0.0 mm 0.000 mm 0.0 km/h
16:50 3.9 °C 0.4 °C 3.9 °C 78% 1004.2 hPa 2 W/m² 0.0 mm 0.000 mm 0.0 km/h
16:55 3.8 °C 0.5 °C 3.8 °C 79% 1004.4 hPa 0 W/m² 0.0 mm 0.000 mm 0.6 km/h
17:00 3.8 °C 0.5 °C 3.8 °C 79% 1004.3 hPa 0 W/m² 0.0 mm 0.000 mm 0.3 km/h